Time;durP1;ratioP1;P1;durP2;ratioP2;P2;SDS_P1;SDS_P2;PMS_P1;PMS_P2;Temp;Humidity;BMP_temperature;BMP_pressure;BME280_temperature;BME280_humidity;BME280_pressure;Samples;Min_cycle;Max_cycle;Signal;HPM_P1;HPM_P2
2022/01/20 00:02:06;;;;;;;;;;;7.00;57.80;;;;;;5053140;28;19947;-66
2022/01/20 00:05:03;;;;;;;;;;;7.00;58.30;;;;;;5070023;28;19908;-64
2022/01/20 00:07:36;;;;;;;;;;;7.00;57.70;;;;;;5070094;28;20261;-64
2022/01/20 00:25:47;;;;;;;;;;;7.10;57.60;;;;;;5071789;28;19919;-65
2022/01/20 00:26:20;;;;;;;;;;;7.10;57.70;;;;;;5072509;28;19913;-64
2022/01/20 00:28:49;;;;;;;;;;;7.10;57.70;;;;;;5056451;28;19912;-65
2022/01/20 00:31:44;;;;;;;;;;;7.10;57.70;;;;;;5056340;28;19913;-65
2022/01/20 00:34:20;;;;;;;;;;;7.10;57.70;;;;;;5072756;28;19908;-65
2022/01/20 00:39:30;;;;;;;;;;;7.20;57.70;;;;;;5075219;28;20272;-64
2022/01/20 00:41:56;;;;;;;;;;;7.20;57.60;;;;;;5075187;28;19908;-66
2022/01/20 00:44:22;;;;;;;;;;;7.20;57.60;;;;;;5057478;28;19919;-64
2022/01/20 00:46:48;;;;;;;;;;;7.30;57.70;;;;;;5091128;28;19958;-64
2022/01/20 00:49:13;;;;;;;;;;;7.30;57.60;;;;;;5057046;28;19908;-65
2022/01/20 00:51:39;;;;;;;;;;;7.30;57.60;;;;;;5075051;28;20065;-65
2022/01/20 00:54:04;;;;;;;;;;;7.40;57.70;;;;;;5074984;28;20287;-65
2022/01/20 00:56:30;;;;;;;;;;;7.40;57.60;;;;;;5075028;28;19966;-65
2022/01/20 00:58:56;;;;;;;;;;;7.50;57.60;;;;;;5075194;28;20348;-64
2022/01/20 01:01:23;;;;;;;;;;;7.50;57.60;;;;;;5074612;28;19959;-64
2022/01/20 01:03:48;;;;;;;;;;;7.50;57.50;;;;;;5071252;28;20003;-64
2022/01/20 01:06:34;;;;;;;;;;;7.50;57.50;;;;;;5053522;28;20000;-65
2022/01/20 01:09:00;;;;;;;;;;;7.60;57.50;;;;;;5053518;28;19998;-64
2022/01/20 01:11:26;;;;;;;;;;;7.60;57.50;;;;;;5053717;28;19956;-65
2022/01/20 01:13:52;;;;;;;;;;;7.60;57.40;;;;;;5054809;28;19909;-65
2022/01/20 01:16:22;;;;;;;;;;;7.70;57.50;;;;;;5070338;28;19909;-65
2022/01/20 01:21:46;;;;;;;;;;;7.80;57.40;;;;;;5067099;28;19926;-65
2022/01/20 01:24:11;;;;;;;;;;;7.80;57.30;;;;;;5056595;28;19998;-65
2022/01/20 01:26:37;;;;;;;;;;;7.80;57.30;;;;;;5056791;28;19988;-64
2022/01/20 01:29:25;;;;;;;;;;;7.90;57.20;;;;;;5074327;28;20333;-63
2022/01/20 01:31:49;;;;;;;;;;;7.90;57.20;;;;;;5073940;28;19957;-65
2022/01/20 01:34:15;;;;;;;;;;;7.90;57.20;;;;;;5074190;28;20326;-65
2022/01/20 01:37:03;;;;;;;;;;;8.00;57.20;;;;;;5074311;28;20003;-64
2022/01/20 01:39:29;;;;;;;;;;;8.00;57.00;;;;;;5056441;28;19954;-64
2022/01/20 01:41:56;;;;;;;;;;;8.00;57.00;;;;;;5073883;28;19912;-65
2022/01/20 01:44:26;;;;;;;;;;;8.10;56.90;;;;;;5074233;28;19905;-65
2022/01/20 01:46:55;;;;;;;;;;;8.10;56.90;;;;;;5073935;28;19991;-65
2022/01/20 01:49:21;;;;;;;;;;;8.10;56.80;;;;;;5056249;28;19912;-65
2022/01/20 01:51:48;;;;;;;;;;;8.10;56.70;;;;;;5055875;28;19908;-64
2022/01/20 01:54:16;;;;;;;;;;;8.20;56.80;;;;;;5073604;28;19908;-64
2022/01/20 01:56:42;;;;;;;;;;;8.20;56.70;;;;;;5074392;28;19912;-65
2022/01/20 01:59:08;;;;;;;;;;;8.20;56.60;;;;;;5055749;28;19905;-64
2022/01/20 02:01:36;;;;;;;;;;;8.20;56.60;;;;;;5073410;28;19911;-65
2022/01/20 02:04:13;;;;;;;;;;;8.30;56.60;;;;;;5073918;28;20397;-64
2022/01/20 02:20:05;;;;;;;;;;;8.50;56.20;;;;;;5054518;28;19966;-65
2022/01/20 02:22:30;;;;;;;;;;;8.50;56.10;;;;;;5053612;28;19909;-65
2022/01/20 02:24:56;;;;;;;;;;;8.50;56.00;;;;;;5053233;28;20338;-65
2022/01/20 02:27:21;;;;;;;;;;;8.60;56.00;;;;;;5053449;28;20257;-65
2022/01/20 02:29:47;;;;;;;;;;;8.60;55.80;;;;;;5053102;28;19904;-65
2022/01/20 02:32:13;;;;;;;;;;;8.60;55.80;;;;;;5035234;28;20340;-65
2022/01/20 02:34:38;;;;;;;;;;;8.60;55.70;;;;;;5052822;28;20348;-64
2022/01/20 02:37:09;;;;;;;;;;;8.60;55.60;;;;;;5052929;28;19905;-65
2022/01/20 02:44:56;;;;;;;;;;;8.70;55.50;;;;;;5053429;28;19930;-66
2022/01/20 02:47:27;;;;;;;;;;;8.70;55.30;;;;;;5053573;28;19908;-65
2022/01/20 02:49:52;;;;;;;;;;;8.70;55.10;;;;;;5052773;28;19905;-64
2022/01/20 02:52:18;;;;;;;;;;;8.70;55.20;;;;;;5035083;28;19981;-65
2022/01/20 02:54:44;;;;;;;;;;;8.70;55.10;;;;;;5035308;28;19909;-65
2022/01/20 02:57:10;;;;;;;;;;;8.70;55.00;;;;;;5053054;28;20035;-65
2022/01/20 02:59:38;;;;;;;;;;;8.80;55.10;;;;;;5041313;28;19909;-65
2022/01/20 03:02:05;;;;;;;;;;;8.70;55.10;;;;;;5015552;28;20423;-65
2022/01/20 03:04:30;;;;;;;;;;;8.70;55.50;;;;;;5032879;28;19921;-65
2022/01/20 03:06:56;;;;;;;;;;;8.70;54.90;;;;;;5049605;28;19909;-65
2022/01/20 03:09:24;;;;;;;;;;;8.80;55.00;;;;;;5053000;28;19974;-65
2022/01/20 03:11:50;;;;;;;;;;;8.80;54.90;;;;;;5068322;28;20059;-65
2022/01/20 03:14:17;;;;;;;;;;;8.80;55.00;;;;;;5052978;28;20010;-65
2022/01/20 03:16:46;;;;;;;;;;;8.80;55.00;;;;;;5053028;28;19912;-65
2022/01/20 03:19:12;;;;;;;;;;;8.80;54.80;;;;;;5063999;28;20372;-65
2022/01/20 03:21:38;;;;;;;;;;;8.80;54.90;;;;;;5055189;28;19904;-64
2022/01/20 03:24:05;;;;;;;;;;;8.80;54.80;;;;;;5072694;28;19909;-65
2022/01/20 03:26:31;;;;;;;;;;;8.80;54.90;;;;;;5055038;28;19912;-65
2022/01/20 03:28:57;;;;;;;;;;;8.80;55.00;;;;;;5055198;28;19911;-64
2022/01/20 03:31:23;;;;;;;;;;;8.80;54.90;;;;;;5072642;28;20244;-65
2022/01/20 03:33:49;;;;;;;;;;;8.80;54.90;;;;;;5055133;28;19915;-65
2022/01/20 03:36:14;;;;;;;;;;;8.80;54.90;;;;;;5072425;28;20357;-65
2022/01/20 03:38:40;;;;;;;;;;;8.80;54.90;;;;;;5072733;28;19909;-65
2022/01/20 03:41:06;;;;;;;;;;;8.80;54.90;;;;;;5072773;28;19947;-65
2022/01/20 03:43:31;;;;;;;;;;;8.80;54.80;;;;;;5072288;28;19919;-65
2022/01/20 03:45:59;;;;;;;;;;;8.80;55.40;;;;;;5075807;28;19987;-64
2022/01/20 03:48:27;;;;;;;;;;;8.80;54.90;;;;;;5092135;28;20263;-65
2022/01/20 03:51:02;;;;;;;;;;;8.80;55.00;;;;;;5076454;28;20308;-65
2022/01/20 03:53:29;;;;;;;;;;;8.70;55.00;;;;;;5076791;28;20373;-64
2022/01/20 03:55:55;;;;;;;;;;;8.70;55.10;;;;;;5076073;28;19912;-66
2022/01/20 03:58:21;;;;;;;;;;;8.70;55.10;;;;;;5057082;28;19954;-64
2022/01/20 04:00:47;;;;;;;;;;;8.70;55.20;;;;;;5055816;28;19927;-65
2022/01/20 04:03:13;;;;;;;;;;;8.70;55.30;;;;;;5056024;28;19918;-64
2022/01/20 04:05:50;;;;;;;;;;;8.70;55.50;;;;;;5071314;28;19931;-65
2022/01/20 04:08:16;;;;;;;;;;;8.60;55.60;;;;;;5070564;28;19915;-65
2022/01/20 04:10:42;;;;;;;;;;;8.60;55.80;;;;;;5058138;28;19908;-65
2022/01/20 04:13:09;;;;;;;;;;;8.50;56.00;;;;;;5076067;28;20003;-65
2022/01/20 04:15:38;;;;;;;;;;;8.50;56.20;;;;;;5092105;28;19908;-64
2022/01/20 04:18:05;;;;;;;;;;;8.40;56.30;;;;;;5057554;28;19908;-66
2022/01/20 04:20:31;;;;;;;;;;;8.40;56.40;;;;;;5075530;28;20379;-65
2022/01/20 04:22:57;;;;;;;;;;;8.30;56.60;;;;;;5076081;28;19904;-64
2022/01/20 04:25:22;;;;;;;;;;;8.30;56.80;;;;;;5076127;28;19915;-65
2022/01/20 04:27:48;;;;;;;;;;;8.20;56.90;;;;;;5075382;28;20003;-65
2022/01/20 04:30:13;;;;;;;;;;;8.20;57.10;;;;;;5057520;28;20336;-65
2022/01/20 04:32:39;;;;;;;;;;;8.20;57.20;;;;;;5057332;28;19908;-65
2022/01/20 04:35:05;;;;;;;;;;;8.10;57.40;;;;;;5091282;28;19909;-65
2022/01/20 04:37:30;;;;;;;;;;;8.00;57.60;;;;;;5075416;28;20003;-65
2022/01/20 04:39:57;;;;;;;;;;;8.00;57.80;;;;;;5075229;28;20286;-65
2022/01/20 04:42:25;;;;;;;;;;;7.90;57.90;;;;;;5091023;28;20546;-64
2022/01/20 04:44:59;;;;;;;;;;;7.90;58.00;;;;;;5075082;28;19950;-66
2022/01/20 04:58:10;;;;;;;;;;;7.90;58.60;;;;;;5073845;28;19912;-65
2022/01/20 05:00:35;;;;;;;;;;;7.80;58.60;;;;;;5069580;28;19908;-65
2022/01/20 05:03:04;;;;;;;;;;;7.80;58.60;;;;;;5074624;28;19911;-65
2022/01/20 05:05:30;;;;;;;;;;;7.80;58.70;;;;;;5053622;28;20320;-65
2022/01/20 05:07:56;;;;;;;;;;;7.80;59.30;;;;;;5055206;28;19909;-65
2022/01/20 05:10:21;;;;;;;;;;;7.80;58.70;;;;;;5052836;28;19912;-65
2022/01/20 05:13:05;;;;;;;;;;;7.80;58.80;;;;;;5074697;28;19909;-64
2022/01/20 05:15:32;;;;;;;;;;;7.80;58.90;;;;;;5056519;28;20336;-65
2022/01/20 05:17:58;;;;;;;;;;;7.80;58.90;;;;;;5074484;28;20378;-65
2022/01/20 05:20:23;;;;;;;;;;;7.80;59.70;;;;;;5074444;28;19913;-65
2022/01/20 05:22:49;;;;;;;;;;;7.80;59.20;;;;;;5074598;28;19908;-65
2022/01/20 05:25:15;;;;;;;;;;;7.80;59.20;;;;;;5074174;28;19916;-65
2022/01/20 05:27:40;;;;;;;;;;;7.80;59.20;;;;;;5074448;28;20356;-65
2022/01/20 05:30:06;;;;;;;;;;;7.80;59.20;;;;;;5074718;28;20312;-65
2022/01/20 05:32:32;;;;;;;;;;;7.80;59.20;;;;;;5056371;28;20252;-64
2022/01/20 05:34:58;;;;;;;;;;;7.80;59.20;;;;;;5074055;28;19908;-65
2022/01/20 05:37:23;;;;;;;;;;;7.80;59.20;;;;;;5074340;28;19999;-65
2022/01/20 05:39:49;;;;;;;;;;;7.80;59.20;;;;;;5074367;28;19988;-65
2022/01/20 05:42:15;;;;;;;;;;;7.80;59.30;;;;;;5074136;28;20368;-64
2022/01/20 05:44:41;;;;;;;;;;;7.80;59.30;;;;;;5056283;28;19912;-64
2022/01/20 05:47:11;;;;;;;;;;;7.80;59.40;;;;;;5074133;28;19910;-66
2022/01/20 05:49:36;;;;;;;;;;;7.80;59.40;;;;;;5089704;28;19908;-65
2022/01/20 05:52:02;;;;;;;;;;;7.80;59.50;;;;;;5089464;28;19935;-65
2022/01/20 05:54:28;;;;;;;;;;;7.80;59.50;;;;;;5074069;28;19935;-65
2022/01/20 05:56:54;;;;;;;;;;;7.80;59.50;;;;;;5073975;28;19913;-64
2022/01/20 05:59:19;;;;;;;;;;;7.80;59.50;;;;;;5063084;28;20003;-66
2022/01/20 06:01:52;;;;;;;;;;;7.80;59.50;;;;;;5053903;28;20012;-65
2022/01/20 06:04:17;;;;;;;;;;;7.80;59.50;;;;;;5035795;28;19913;-65
2022/01/20 06:06:44;;;;;;;;;;;7.80;59.50;;;;;;5053374;28;19974;-67
2022/01/20 06:09:10;;;;;;;;;;;7.80;59.60;;;;;;5053360;28;20008;-65
2022/01/20 06:11:36;;;;;;;;;;;7.80;59.60;;;;;;5053044;28;20336;-65
2022/01/20 06:14:03;;;;;;;;;;;7.80;59.70;;;;;;5047454;28;20349;-64
2022/01/20 06:16:31;;;;;;;;;;;7.80;59.70;;;;;;5035446;28;19923;-64
2022/01/20 06:18:57;;;;;;;;;;;7.80;59.80;;;;;;5062666;28;19924;-65
2022/01/20 06:21:23;;;;;;;;;;;7.80;59.80;;;;;;5055543;28;19920;-65
2022/01/20 06:23:48;;;;;;;;;;;7.80;59.80;;;;;;5089127;28;19904;-66
2022/01/20 06:26:14;;;;;;;;;;;7.80;60.60;;;;;;5055323;28;20201;-64
2022/01/20 06:28:42;;;;;;;;;;;7.80;59.80;;;;;;5073163;28;20296;-64
2022/01/20 06:31:09;;;;;;;;;;;7.80;59.80;;;;;;5054018;28;19958;-65
2022/01/20 06:33:35;;;;;;;;;;;7.80;59.90;;;;;;5054624;28;19912;-65
2022/01/20 06:36:03;;;;;;;;;;;7.70;59.80;;;;;;5055053;28;19905;-66
2022/01/20 06:38:28;;;;;;;;;;;7.70;59.80;;;;;;5073044;28;19910;-65
2022/01/20 06:40:54;;;;;;;;;;;7.70;59.90;;;;;;5073013;28;19987;-65
2022/01/20 06:43:23;;;;;;;;;;;7.70;60.00;;;;;;5073064;28;19905;-65
2022/01/20 06:45:49;;;;;;;;;;;7.70;60.00;;;;;;5072999;28;19978;-65
2022/01/20 06:48:17;;;;;;;;;;;7.70;60.00;;;;;;5054985;28;19904;-66
2022/01/20 06:50:45;;;;;;;;;;;7.70;60.10;;;;;;5054821;28;19958;-65
2022/01/20 06:53:11;;;;;;;;;;;7.60;60.10;;;;;;5073458;28;19908;-65
2022/01/20 06:55:36;;;;;;;;;;;7.60;60.10;;;;;;5073137;28;19970;-64
2022/01/20 06:58:02;;;;;;;;;;;7.60;60.20;;;;;;5073063;28;19908;-64
2022/01/20 07:00:28;;;;;;;;;;;7.60;60.20;;;;;;5054802;28;19910;-66
2022/01/20 07:02:53;;;;;;;;;;;7.50;60.30;;;;;;5088783;28;20255;-65
2022/01/20 07:05:20;;;;;;;;;;;7.60;60.40;;;;;;5072615;28;19904;-65
2022/01/20 07:07:46;;;;;;;;;;;7.60;60.40;;;;;;5088530;28;19908;-67
2022/01/20 07:10:12;;;;;;;;;;;7.50;60.40;;;;;;5088652;28;20004;-64
2022/01/20 07:12:38;;;;;;;;;;;7.50;60.50;;;;;;5072848;28;19912;-65
2022/01/20 07:15:04;;;;;;;;;;;7.50;60.60;;;;;;5072604;28;19915;-65
2022/01/20 07:17:30;;;;;;;;;;;7.50;60.70;;;;;;5074892;28;20006;-65
2022/01/20 07:19:56;;;;;;;;;;;7.50;60.80;;;;;;5076813;28;20338;-65
2022/01/20 07:22:21;;;;;;;;;;;7.60;60.90;;;;;;5079217;28;19954;-65
2022/01/20 07:24:47;;;;;;;;;;;7.50;60.80;;;;;;5079373;28;19908;-65
2022/01/20 07:27:13;;;;;;;;;;;7.60;60.80;;;;;;5078605;28;19908;-64
2022/01/20 07:29:39;;;;;;;;;;;7.60;60.90;;;;;;5097204;28;19904;-67
2022/01/20 07:32:06;;;;;;;;;;;7.60;61.00;;;;;;5078982;28;19916;-65
2022/01/20 07:34:32;;;;;;;;;;;7.60;61.00;;;;;;5097200;28;19915;-65
2022/01/20 07:36:58;;;;;;;;;;;7.60;61.10;;;;;;5096967;28;19904;-65
2022/01/20 07:39:24;;;;;;;;;;;7.60;61.10;;;;;;5096936;28;20264;-65
2022/01/20 07:41:49;;;;;;;;;;;7.60;61.10;;;;;;5097226;28;20256;-64
2022/01/20 07:44:17;;;;;;;;;;;7.70;61.10;;;;;;5096670;28;20462;-65
2022/01/20 07:46:46;;;;;;;;;;;7.70;61.10;;;;;;5096846;28;20041;-65
2022/01/20 07:49:12;;;;;;;;;;;7.70;61.10;;;;;;5078732;28;19904;-65
2022/01/20 07:51:38;;;;;;;;;;;7.70;61.10;;;;;;5096589;28;19915;-65
2022/01/20 07:54:03;;;;;;;;;;;7.80;61.10;;;;;;5078531;28;19915;-65
2022/01/20 07:56:29;;;;;;;;;;;7.80;61.80;;;;;;5078559;28;19915;-65
2022/01/20 07:58:54;;;;;;;;;;;7.80;61.00;;;;;;5082011;28;19948;-65
2022/01/20 08:01:26;;;;;;;;;;;7.80;61.00;;;;;;5038379;28;19912;-65
2022/01/20 08:03:52;;;;;;;;;;;7.80;61.00;;;;;;5038200;28;19909;-65
2022/01/20 08:06:20;;;;;;;;;;;7.80;61.10;;;;;;5056263;28;20259;-66
2022/01/20 08:08:46;;;;;;;;;;;7.80;61.00;;;;;;5038510;28;20364;-65
2022/01/20 08:11:11;;;;;;;;;;;7.90;61.10;;;;;;5047669;28;20006;-65
2022/01/20 08:13:39;;;;;;;;;;;7.80;60.90;;;;;;5075940;28;20363;-65
2022/01/20 08:16:05;;;;;;;;;;;7.90;61.10;;;;;;5058030;28;19962;-66
2022/01/20 08:18:30;;;;;;;;;;;7.90;61.10;;;;;;5081218;28;19928;-65
2022/01/20 08:20:59;;;;;;;;;;;7.90;61.20;;;;;;5096173;28;19904;-64
2022/01/20 08:23:24;;;;;;;;;;;7.90;61.20;;;;;;5077939;28;20415;-64
2022/01/20 08:25:50;;;;;;;;;;;7.90;61.20;;;;;;5095826;28;20000;-65
2022/01/20 08:28:17;;;;;;;;;;;8.00;61.30;;;;;;5111482;28;19912;-66
2022/01/20 08:30:43;;;;;;;;;;;8.00;61.20;;;;;;5095987;28;19945;-64
2022/01/20 08:33:09;;;;;;;;;;;8.00;61.10;;;;;;5077415;28;19977;-64
2022/01/20 08:35:34;;;;;;;;;;;8.00;61.10;;;;;;5095860;28;20263;-65
2022/01/20 08:38:03;;;;;;;;;;;8.00;61.10;;;;;;5096038;28;19904;-65
2022/01/20 08:40:29;;;;;;;;;;;8.10;61.10;;;;;;5111564;28;20326;-64
2022/01/20 08:42:55;;;;;;;;;;;8.10;61.20;;;;;;5095723;28;19958;-64
2022/01/20 08:45:22;;;;;;;;;;;8.10;61.10;;;;;;5077651;28;19918;-64
2022/01/20 08:47:51;;;;;;;;;;;8.10;60.90;;;;;;5095539;28;19908;-64
2022/01/20 08:50:18;;;;;;;;;;;8.10;60.90;;;;;;5077506;28;20013;-64
2022/01/20 08:52:43;;;;;;;;;;;8.10;60.90;;;;;;5095260;28;19999;-64
2022/01/20 08:55:09;;;;;;;;;;;8.20;60.90;;;;;;5095487;28;20349;-64
2022/01/20 08:57:35;;;;;;;;;;;8.20;60.90;;;;;;5095417;28;19908;-64
2022/01/20 09:00:00;;;;;;;;;;;8.20;60.90;;;;;;5060941;28;19904;-64
2022/01/20 09:02:26;;;;;;;;;;;8.30;61.00;;;;;;5074750;28;19911;-64
2022/01/20 09:04:51;;;;;;;;;;;8.30;60.70;;;;;;5090681;28;19915;-64
2022/01/20 09:07:17;;;;;;;;;;;8.30;60.40;;;;;;5074681;28;19905;-65
2022/01/20 09:09:46;;;;;;;;;;;8.30;60.40;;;;;;5075054;28;19944;-64
2022/01/20 09:12:19;;;;;;;;;;;8.40;60.40;;;;;;5074641;28;19909;-64
2022/01/20 09:17:30;;;;;;;;;;;8.50;60.10;;;;;;5074489;28;19915;-64
2022/01/20 09:19:56;;;;;;;;;;;8.50;59.90;;;;;;5038485;28;20443;-64
2022/01/20 09:22:22;;;;;;;;;;;8.50;59.70;;;;;;5054286;28;19955;-64
2022/01/20 09:24:48;;;;;;;;;;;8.50;59.70;;;;;;5054670;28;20256;-64
2022/01/20 09:27:14;;;;;;;;;;;8.50;59.70;;;;;;5054308;28;19904;-64
2022/01/20 09:29:40;;;;;;;;;;;8.60;59.70;;;;;;5054259;28;19908;-66
2022/01/20 09:32:08;;;;;;;;;;;8.70;59.50;;;;;;5036593;28;19908;-64
2022/01/20 09:34:33;;;;;;;;;;;8.70;59.50;;;;;;5036728;28;19909;-64
2022/01/20 09:36:59;;;;;;;;;;;8.80;59.40;;;;;;5054360;28;19920;-64
2022/01/20 09:39:25;;;;;;;;;;;8.90;59.20;;;;;;5036507;28;20257;-65
2022/01/20 09:41:50;;;;;;;;;;;8.90;59.00;;;;;;5053937;28;19928;-64
2022/01/20 09:44:16;;;;;;;;;;;8.90;58.80;;;;;;5053891;28;19936;-64
2022/01/20 09:46:43;;;;;;;;;;;9.00;58.80;;;;;;5054223;28;19916;-65
2022/01/20 09:49:11;;;;;;;;;;;9.00;58.80;;;;;;5054168;28;19909;-64
2022/01/20 09:51:37;;;;;;;;;;;8.90;58.60;;;;;;5035940;28;19948;-65
2022/01/20 09:54:04;;;;;;;;;;;8.90;58.70;;;;;;5036374;28;20427;-64
2022/01/20 09:56:29;;;;;;;;;;;8.90;58.60;;;;;;5036556;28;19916;-64
2022/01/20 09:58:55;;;;;;;;;;;9.00;58.80;;;;;;5053319;28;19921;-65
2022/01/20 10:01:41;;;;;;;;;;;9.10;59.00;;;;;;5053784;28;19908;-64
2022/01/20 10:04:29;;;;;;;;;;;9.10;58.90;;;;;;5035907;28;19912;-64
2022/01/20 10:06:55;;;;;;;;;;;9.20;58.30;;;;;;5053872;28;19905;-64
2022/01/20 10:09:28;;;;;;;;;;;9.20;58.20;;;;;;5069148;28;19909;-64
2022/01/20 10:11:54;;;;;;;;;;;9.30;57.80;;;;;;5035906;28;19909;-65
2022/01/20 10:14:22;;;;;;;;;;;9.40;57.80;;;;;;5054183;28;19980;-65
2022/01/20 10:16:48;;;;;;;;;;;9.50;57.80;;;;;;5035794;28;19913;-65
2022/01/20 10:19:24;;;;;;;;;;;9.60;57.70;;;;;;5065179;28;19921;-65
2022/01/20 10:21:52;;;;;;;;;;;9.70;57.20;;;;;;5049256;28;19999;-64
2022/01/20 10:24:17;;;;;;;;;;;9.70;56.60;;;;;;5053561;28;19915;-65
2022/01/20 10:26:44;;;;;;;;;;;9.80;56.70;;;;;;5069353;28;20007;-65
2022/01/20 10:29:12;;;;;;;;;;;9.80;56.30;;;;;;5068504;28;19955;-65
2022/01/20 10:31:40;;;;;;;;;;;9.90;56.50;;;;;;5053555;28;20264;-66
2022/01/20 10:34:30;;;;;;;;;;;9.90;56.30;;;;;;5035530;28;19923;-71
2022/01/20 10:36:59;;;;;;;;;;;10.00;56.00;;;;;;5068759;28;19905;-73
2022/01/20 10:39:28;;;;;;;;;;;10.10;55.50;;;;;;5035494;28;20315;-68
2022/01/20 10:42:08;;;;;;;;;;;10.00;55.30;;;;;;5047234;28;19905;-70
2022/01/20 10:44:49;;;;;;;;;;;10.00;55.20;;;;;;5033731;28;19909;-65
2022/01/20 10:47:18;;;;;;;;;;;10.10;55.30;;;;;;5016955;28;19927;-65
2022/01/20 10:49:44;;;;;;;;;;;10.10;55.50;;;;;;5049699;28;19920;-65
2022/01/20 10:52:11;;;;;;;;;;;10.10;55.50;;;;;;5049324;28;19909;-65
2022/01/20 10:54:39;;;;;;;;;;;10.20;55.40;;;;;;5033722;28;19909;-65
2022/01/20 10:57:08;;;;;;;;;;;10.20;55.40;;;;;;5049019;28;19913;-65
2022/01/20 10:59:34;;;;;;;;;;;10.30;55.40;;;;;;5015814;28;19955;-65
2022/01/20 11:02:07;;;;;;;;;;;10.30;55.40;;;;;;5063513;28;19909;-64
2022/01/20 11:04:34;;;;;;;;;;;10.30;55.30;;;;;;5069080;28;19908;-64
2022/01/20 11:07:03;;;;;;;;;;;10.30;55.00;;;;;;5054132;28;19944;-65
2022/01/20 11:09:31;;;;;;;;;;;10.20;54.90;;;;;;5078473;28;20358;-65
2022/01/20 11:11:57;;;;;;;;;;;10.20;54.80;;;;;;5053443;28;20364;-65
2022/01/20 11:14:23;;;;;;;;;;;10.20;54.90;;;;;;5053370;28;19909;-64
2022/01/20 11:16:48;;;;;;;;;;;10.20;54.90;;;;;;5053868;28;19905;-64
2022/01/20 11:19:18;;;;;;;;;;;10.30;54.50;;;;;;5080276;28;19928;-65
2022/01/20 11:21:45;;;;;;;;;;;10.30;54.40;;;;;;5073358;28;19947;-65
2022/01/20 11:24:22;;;;;;;;;;;10.30;54.30;;;;;;5055801;28;20340;-64
2022/01/20 11:26:51;;;;;;;;;;;10.30;54.20;;;;;;5073792;28;19904;-64
2022/01/20 11:29:17;;;;;;;;;;;10.40;54.80;;;;;;5055148;28;20454;-65
2022/01/20 11:31:42;;;;;;;;;;;10.30;54.50;;;;;;5073224;28;20003;-66
2022/01/20 11:34:16;;;;;;;;;;;10.30;54.40;;;;;;5073540;28;19908;-65
2022/01/20 11:36:42;;;;;;;;;;;10.30;54.20;;;;;;5072944;28;20050;-69
2022/01/20 11:39:08;;;;;;;;;;;10.30;54.60;;;;;;5072001;28;19959;-64
2022/01/20 11:41:40;;;;;;;;;;;10.20;53.50;;;;;;5053686;28;19909;-69
2022/01/20 11:44:10;;;;;;;;;;;10.30;53.80;;;;;;5073476;28;19931;-75
2022/01/20 11:46:38;;;;;;;;;;;10.30;53.80;;;;;;5088780;28;19904;-64
2022/01/20 11:49:08;;;;;;;;;;;10.30;53.60;;;;;;5054977;28;19905;-67
2022/01/20 11:51:53;;;;;;;;;;;10.30;53.40;;;;;;5072961;28;19931;-71
2022/01/20 11:54:27;;;;;;;;;;;10.30;53.50;;;;;;5071269;28;19912;-65
2022/01/20 11:57:03;;;;;;;;;;;10.30;52.90;;;;;;5072873;28;19931;-65
2022/01/20 11:59:35;;;;;;;;;;;10.30;53.00;;;;;;5055135;28;19904;-65
2022/01/20 12:02:01;;;;;;;;;;;10.30;53.10;;;;;;5088676;28;19905;-65
2022/01/20 12:04:37;;;;;;;;;;;10.30;52.90;;;;;;5088283;28;20267;-64
2022/01/20 12:07:03;;;;;;;;;;;10.30;52.80;;;;;;5059268;28;20003;-64
2022/01/20 12:09:39;;;;;;;;;;;10.20;52.80;;;;;;5058759;28;19904;-65
2022/01/20 12:12:06;;;;;;;;;;;10.20;52.70;;;;;;5092119;28;19959;-65
2022/01/20 12:14:35;;;;;;;;;;;10.20;52.70;;;;;;5077205;28;19908;-65
2022/01/20 12:17:02;;;;;;;;;;;10.10;52.80;;;;;;5058919;28;20006;-65
2022/01/20 12:19:28;;;;;;;;;;;10.10;53.00;;;;;;5062941;28;19921;-65
2022/01/20 12:21:53;;;;;;;;;;;10.10;52.90;;;;;;5039554;28;19904;-67
2022/01/20 12:24:20;;;;;;;;;;;10.00;53.10;;;;;;5056708;28;19905;-65
2022/01/20 12:26:48;;;;;;;;;;;10.00;52.90;;;;;;5055829;28;20151;-65
2022/01/20 12:29:14;;;;;;;;;;;10.00;53.00;;;;;;5056583;28;20280;-66
2022/01/20 12:31:51;;;;;;;;;;;9.90;53.00;;;;;;5039118;28;19909;-66
2022/01/20 12:34:19;;;;;;;;;;;9.90;53.10;;;;;;5056515;28;20018;-66
2022/01/20 12:37:01;;;;;;;;;;;9.90;53.10;;;;;;5038455;28;20061;-70
2022/01/20 12:39:34;;;;;;;;;;;9.90;53.20;;;;;;5038536;28;20007;-69
2022/01/20 12:42:07;;;;;;;;;;;9.80;53.30;;;;;;5047614;28;19913;-69
2022/01/20 12:44:47;;;;;;;;;;;9.80;53.30;;;;;;5055054;28;19904;-69
2022/01/20 12:47:29;;;;;;;;;;;9.80;53.40;;;;;;5071217;28;19955;-69
2022/01/20 12:49:59;;;;;;;;;;;9.80;53.30;;;;;;5018091;28;19909;-69
2022/01/20 12:52:25;;;;;;;;;;;9.70;53.50;;;;;;5018137;28;19971;-69
2022/01/20 12:54:54;;;;;;;;;;;9.70;53.70;;;;;;5056562;28;19912;-69
2022/01/20 12:57:31;;;;;;;;;;;9.70;53.70;;;;;;5072324;28;19916;-69
2022/01/20 12:59:59;;;;;;;;;;;9.70;53.60;;;;;;5030268;28;19908;-67
2022/01/20 13:02:29;;;;;;;;;;;9.60;53.60;;;;;;5055192;28;19915;-67
2022/01/20 13:05:00;;;;;;;;;;;9.60;53.50;;;;;;5037068;28;20352;-67
2022/01/20 13:07:27;;;;;;;;;;;9.60;53.70;;;;;;5070363;28;19975;-67
2022/01/20 13:10:01;;;;;;;;;;;9.70;53.80;;;;;;5055049;28;19948;-68
2022/01/20 13:12:31;;;;;;;;;;;9.80;53.90;;;;;;5054702;28;20265;-67
2022/01/20 13:14:57;;;;;;;;;;;9.90;53.90;;;;;;5070319;28;20360;-67
2022/01/20 13:17:30;;;;;;;;;;;9.90;53.30;;;;;;5053886;28;19916;-67
2022/01/20 13:19:57;;;;;;;;;;;10.00;52.90;;;;;;5053695;28;20011;-67
2022/01/20 13:22:25;;;;;;;;;;;10.00;52.70;;;;;;5074798;28;19915;-68
2022/01/20 13:24:50;;;;;;;;;;;10.00;52.60;;;;;;5074839;28;20182;-67
2022/01/20 13:27:19;;;;;;;;;;;10.00;52.50;;;;;;5057191;28;19957;-68
2022/01/20 13:29:46;;;;;;;;;;;10.00;52.40;;;;;;5075109;28;19908;-67
2022/01/20 13:32:15;;;;;;;;;;;10.00;52.10;;;;;;5074919;28;20256;-67
2022/01/20 13:34:51;;;;;;;;;;;10.00;52.20;;;;;;5074642;28;20252;-67
2022/01/20 13:37:16;;;;;;;;;;;10.00;52.20;;;;;;5057307;28;20011;-67
2022/01/20 13:39:44;;;;;;;;;;;10.00;52.20;;;;;;5074689;28;19944;-67
2022/01/20 13:42:23;;;;;;;;;;;10.00;52.20;;;;;;5074680;28;19911;-68
2022/01/20 13:45:15;;;;;;;;;;;10.00;52.40;;;;;;5074565;28;19904;-67
2022/01/20 13:47:59;;;;;;;;;;;10.00;52.40;;;;;;5075101;28;20328;-67
2022/01/20 13:50:26;;;;;;;;;;;10.00;52.30;;;;;;5074718;28;19991;-69
2022/01/20 13:52:52;;;;;;;;;;;10.00;52.30;;;;;;5074640;28;19908;-70
2022/01/20 13:55:29;;;;;;;;;;;10.00;52.30;;;;;;5056712;28;20249;-70
2022/01/20 13:57:56;;;;;;;;;;;10.10;52.30;;;;;;5074579;28;19916;-70
2022/01/20 14:00:23;;;;;;;;;;;10.10;52.20;;;;;;5056875;28;19911;-69
2022/01/20 14:02:51;;;;;;;;;;;10.10;52.20;;;;;;5073984;28;20336;-69
2022/01/20 14:05:17;;;;;;;;;;;10.10;52.00;;;;;;5056445;28;19928;-69
2022/01/20 14:07:43;;;;;;;;;;;10.10;52.00;;;;;;5056381;28;19927;-69
2022/01/20 14:10:11;;;;;;;;;;;10.00;51.90;;;;;;5074591;28;19987;-70
2022/01/20 14:12:37;;;;;;;;;;;10.10;52.00;;;;;;5074247;28;19908;-69
2022/01/20 14:15:03;;;;;;;;;;;10.10;52.20;;;;;;5074110;28;20245;-69
2022/01/20 14:17:34;;;;;;;;;;;10.10;52.80;;;;;;5074205;28;19905;-69
2022/01/20 14:20:06;;;;;;;;;;;10.10;52.20;;;;;;5074418;28;20000;-69
2022/01/20 14:22:32;;;;;;;;;;;10.20;52.10;;;;;;5089738;28;19944;-70
2022/01/20 14:24:57;;;;;;;;;;;10.10;52.00;;;;;;5089713;28;19978;-69
2022/01/20 14:27:23;;;;;;;;;;;10.10;52.20;;;;;;5073732;28;19904;-69
2022/01/20 14:29:49;;;;;;;;;;;10.10;52.30;;;;;;5073263;28;19911;-70
2022/01/20 14:32:15;;;;;;;;;;;10.00;52.60;;;;;;5055639;28;19913;-69
2022/01/20 14:34:41;;;;;;;;;;;9.90;53.40;;;;;;5073664;28;19958;-66
2022/01/20 14:37:07;;;;;;;;;;;9.70;55.00;;;;;;5055684;28;19954;-66
2022/01/20 14:39:33;;;;;;;;;;;9.30;55.20;;;;;;5073492;28;19904;-69
2022/01/20 14:42:01;;;;;;;;;;;9.00;55.60;;;;;;5073907;28;19934;-69
2022/01/20 14:44:27;;;;;;;;;;;8.70;56.00;;;;;;5055764;28;19912;-69
2022/01/20 14:46:55;;;;;;;;;;;8.40;56.70;;;;;;5055746;28;19912;-69
2022/01/20 14:49:21;;;;;;;;;;;8.10;57.60;;;;;;5073665;28;20248;-70
2022/01/20 14:51:48;;;;;;;;;;;7.90;58.40;;;;;;5074036;28;19915;-69
2022/01/20 14:54:16;;;;;;;;;;;7.80;59.20;;;;;;5055343;28;20006;-69
2022/01/20 14:56:41;;;;;;;;;;;7.60;59.80;;;;;;5074060;28;19905;-69
2022/01/20 14:59:07;;;;;;;;;;;7.50;60.30;;;;;;5073831;28;20241;-69
2022/01/20 15:01:37;;;;;;;;;;;7.50;61.10;;;;;;5073290;28;19991;-69
2022/01/20 15:04:03;;;;;;;;;;;7.40;61.60;;;;;;5056151;28;19999;-69
2022/01/20 15:06:28;;;;;;;;;;;7.40;62.20;;;;;;5055609;28;19911;-68
2022/01/20 15:08:54;;;;;;;;;;;7.30;62.60;;;;;;5073510;28;20298;-69
2022/01/20 15:11:24;;;;;;;;;;;7.30;62.70;;;;;;5073594;28;19912;-69
2022/01/20 15:13:50;;;;;;;;;;;7.30;63.20;;;;;;5055914;28;19915;-69
2022/01/20 15:16:16;;;;;;;;;;;7.20;63.30;;;;;;5088693;28;19904;-70
2022/01/20 15:18:44;;;;;;;;;;;7.20;63.20;;;;;;5072777;28;19920;-70
2022/01/20 15:21:10;;;;;;;;;;;7.10;63.30;;;;;;5073552;28;19958;-70
2022/01/20 15:23:36;;;;;;;;;;;7.00;63.40;;;;;;5073651;28;19955;-70